Terminal Aerodrome Forecast
Issued by NWS Denver/Boulder, CO

Home | Current Version | Previous Version | Text Only | Print | Product List | Glossary On
Versions: 1 2 3 4 5 6 7 8 9 10 11 12 13 14 15 16 17 18 19 20 21 22 23 24 25 26 27 28 29 30 31 32 33 34 35 36 37 38 39 40 41 42 43 44 45 46 47 48 49 50
000
FTUS45 KBOU 290313 AAD
TAFDEN
TAF AMD
KDEN 290313Z 2903/3006 36014G24KT 3SM -RA BR OVC003
      TEMPO 2903/2907 1SM -RA BR OVC002
     FM290900 36014KT 3SM -RASN BR BKN005 OVC008
     FM291300 36012KT 4SM -RA BR SCT008 BKN012
     FM291800 01015KT 5SM -RA BR SCT012 BKN020
     FM292000 01015KT P6SM SCT020 BKN035
     FM300100 05008KT P6SM SCT035 SCT100
     FM300300 11006KT P6SM FEW100=

USA.gov is the U.S. government's official web portal to all federal, state and local government web resources and services.